EGLC

London City Airport

Airport
ICAO code
EGLC
IATA Code
LCY
Summary
ICAO Region
EUR
ICAO Territory
Location

Silvertown, England

Serving
London
Elevation
19 ft
Coordinates
51° 30' 18" N , 0° 3' 17" E
KCC
Cfb
Metar
Observation
EGLC 081520Z AUTO 10010KT 9999 NCD 27/13 Q1026
Station
London City Airport
Date/Time
2022-08-08 15:20:00
Wind direction
100°
Wind speed
10 kts
Lowest cloud amount
no clouds detected
Temperature
27°C
Dew point
13°C
Humidity
42%
QNH
1026 hPa
Weather condition
n/a

Description

Airport serving the City of London and the business district of Canary Wharf in London's Docklands.

Climatology

Temperate Marine climate/Oceanic climate (Köppen climate classification Cfb). Moderately cool summer and comparatively warm winter with a temperature range of only 14°C. Prevailing south-westerly winds from the Atlantic Ocean.

Runways

Designator Length Width Surface Rops
10/28 1508 30 CON Yes/Yes

SKYbrary Partners:

Safety knowledge contributed by: